<?xml version="1.0" encoding="UTF-8" standalone="no" ?>
<gpx xmlns="http://www.topografix.com/GPX/1/1" xmlns:xsi="http://www.w3.org/2001/XMLSchema-instance" xsi:schemaLocation="http://www.topografix.com/GPX/1/1 http://www.topografix.com/GPX/1/1/gpx.xsd" version="1.1" creator="VisuGPX - https://www.visugpx.com">
  <metadata>
    <name>PR 69 et 68 station télécabine</name>
    <desc><![CDATA[Jolie randonnée en altitude - départ de la station du télécabine , en haut des Angles 66 - Et descente vers le village. [url]http://trekkingzone.fr[/url]]]></desc>
  </metadata>
  <trk>
    <name><![CDATA[13504517-LES ANGLES PR 69 et 68]]></name>
    <trkseg>
      <trkpt lat="42.57262" lon="2.05334">
        <ele>2108</ele>
        <time>2021-08-05T14:32:30Z</time>
      </trkpt>
      <trkpt lat="42.57243" lon="2.05287">
        <ele>2108</ele>
        <time>2021-08-05T14:33:23Z</time>
      </trkpt>
      <trkpt lat="42.57243" lon="2.05146">
        <ele>2111</ele>
        <time>2021-08-05T14:35:41Z</time>
      </trkpt>
      <trkpt lat="42.57221" lon="2.05103">
        <ele>2116</ele>
        <time>2021-08-05T14:36:33Z</time>
      </trkpt>
      <trkpt lat="42.57233" lon="2.0503">
        <ele>2126</ele>
        <time>2021-08-05T14:37:46Z</time>
      </trkpt>
      <trkpt lat="42.57164" lon="2.04957">
        <ele>2148</ele>
        <time>2021-08-05T14:39:43Z</time>
      </trkpt>
      <trkpt lat="42.57116" lon="2.0491">
        <ele>2157</ele>
        <time>2021-08-05T14:41:02Z</time>
      </trkpt>
      <trkpt lat="42.57072" lon="2.04871">
        <ele>2161</ele>
        <time>2021-08-05T14:42:12Z</time>
      </trkpt>
      <trkpt lat="42.57072" lon="2.04785">
        <ele>2179</ele>
        <time>2021-08-05T14:43:37Z</time>
      </trkpt>
      <trkpt lat="42.57053" lon="2.04678">
        <ele>2195</ele>
        <time>2021-08-05T14:45:25Z</time>
      </trkpt>
      <trkpt lat="42.57002" lon="2.04635">
        <ele>2188</ele>
        <time>2021-08-05T14:46:45Z</time>
      </trkpt>
      <trkpt lat="42.56974" lon="2.04575">
        <ele>2189</ele>
        <time>2021-08-05T14:47:55Z</time>
      </trkpt>
      <trkpt lat="42.5698" lon="2.0445">
        <ele>2208</ele>
        <time>2021-08-05T14:49:58Z</time>
      </trkpt>
      <trkpt lat="42.56993" lon="2.04343">
        <ele>2217</ele>
        <time>2021-08-05T14:51:44Z</time>
      </trkpt>
      <trkpt lat="42.57059" lon="2.04335">
        <ele>2227</ele>
        <time>2021-08-05T14:53:13Z</time>
      </trkpt>
      <trkpt lat="42.57129" lon="2.043">
        <ele>2238</ele>
        <time>2021-08-05T14:54:52Z</time>
      </trkpt>
      <trkpt lat="42.5717" lon="2.04309">
        <ele>2248</ele>
        <time>2021-08-05T14:55:48Z</time>
      </trkpt>
      <trkpt lat="42.57242" lon="2.04271">
        <ele>2275</ele>
        <time>2021-08-05T14:57:31Z</time>
      </trkpt>
      <trkpt lat="42.57331" lon="2.04193">
        <ele>2307</ele>
        <time>2021-08-05T14:59:52Z</time>
      </trkpt>
      <trkpt lat="42.57407" lon="2.04125">
        <ele>2317</ele>
        <time>2021-08-05T15:01:54Z</time>
      </trkpt>
      <trkpt lat="42.57445" lon="2.03932">
        <ele>2322</ele>
        <time>2021-08-05T15:05:10Z</time>
      </trkpt>
      <trkpt lat="42.57473" lon="2.03829">
        <ele>2323</ele>
        <time>2021-08-05T15:06:58Z</time>
      </trkpt>
      <trkpt lat="42.57536" lon="2.03713">
        <ele>2323</ele>
        <time>2021-08-05T15:09:19Z</time>
      </trkpt>
      <trkpt lat="42.57577" lon="2.03618">
        <ele>2324</ele>
        <time>2021-08-05T15:11:08Z</time>
      </trkpt>
      <trkpt lat="42.57605" lon="2.03499">
        <ele>2331</ele>
        <time>2021-08-05T15:13:10Z</time>
      </trkpt>
      <trkpt lat="42.5763" lon="2.034">
        <ele>2339</ele>
        <time>2021-08-05T15:14:53Z</time>
      </trkpt>
      <trkpt lat="42.57674" lon="2.03323">
        <ele>2349</ele>
        <time>2021-08-05T15:16:29Z</time>
      </trkpt>
      <trkpt lat="42.57722" lon="2.03216">
        <ele>2359</ele>
        <time>2021-08-05T15:18:32Z</time>
      </trkpt>
      <trkpt lat="42.57804" lon="2.03049">
        <ele>2366</ele>
        <time>2021-08-05T15:21:49Z</time>
      </trkpt>
      <trkpt lat="42.57832" lon="2.02941">
        <ele>2365</ele>
        <time>2021-08-05T15:23:42Z</time>
      </trkpt>
      <trkpt lat="42.57734" lon="2.02958">
        <ele>2360</ele>
        <time>2021-08-05T15:25:54Z</time>
      </trkpt>
      <trkpt lat="42.5769" lon="2.03019">
        <ele>2356</ele>
        <time>2021-08-05T15:27:18Z</time>
      </trkpt>
      <trkpt lat="42.5774" lon="2.03177">
        <ele>2363</ele>
        <time>2021-08-05T15:30:07Z</time>
      </trkpt>
      <trkpt lat="42.57646" lon="2.034">
        <ele>2339</ele>
        <time>2021-08-05T15:34:19Z</time>
      </trkpt>
      <trkpt lat="42.5756" lon="2.03675">
        <ele>2324</ele>
        <time>2021-08-05T15:39:13Z</time>
      </trkpt>
      <trkpt lat="42.57467" lon="2.03883">
        <ele>2322</ele>
        <time>2021-08-05T15:43:12Z</time>
      </trkpt>
      <trkpt lat="42.57284" lon="2.04114">
        <ele>2284</ele>
        <time>2021-08-05T15:48:45Z</time>
      </trkpt>
      <trkpt lat="42.57323" lon="2.0419">
        <ele>2304</ele>
        <time>2021-08-05T15:50:16Z</time>
      </trkpt>
      <trkpt lat="42.57269" lon="2.04207">
        <ele>2283</ele>
        <time>2021-08-05T15:51:30Z</time>
      </trkpt>
      <trkpt lat="42.57244" lon="2.04231">
        <ele>2276</ele>
        <time>2021-08-05T15:52:11Z</time>
      </trkpt>
      <trkpt lat="42.57094" lon="2.04327">
        <ele>2232</ele>
        <time>2021-08-05T15:55:52Z</time>
      </trkpt>
      <trkpt lat="42.56991" lon="2.04422">
        <ele>2214</ele>
        <time>2021-08-05T15:58:39Z</time>
      </trkpt>
      <trkpt lat="42.56986" lon="2.04503">
        <ele>2202</ele>
        <time>2021-08-05T15:59:58Z</time>
      </trkpt>
      <trkpt lat="42.5699" lon="2.04617">
        <ele>2187</ele>
        <time>2021-08-05T16:01:51Z</time>
      </trkpt>
      <trkpt lat="42.57058" lon="2.04694">
        <ele>2194</ele>
        <time>2021-08-05T16:03:49Z</time>
      </trkpt>
      <trkpt lat="42.57073" lon="2.04752">
        <ele>2186</ele>
        <time>2021-08-05T16:04:49Z</time>
      </trkpt>
      <trkpt lat="42.5707" lon="2.04737">
        <ele>2188</ele>
        <time>2021-08-05T16:05:04Z</time>
      </trkpt>
      <trkpt lat="42.57078" lon="2.04885">
        <ele>2160</ele>
        <time>2021-08-05T16:07:30Z</time>
      </trkpt>
      <trkpt lat="42.57111" lon="2.04913">
        <ele>2156</ele>
        <time>2021-08-05T16:08:22Z</time>
      </trkpt>
      <trkpt lat="42.5718" lon="2.04976">
        <ele>2142</ele>
        <time>2021-08-05T16:10:13Z</time>
      </trkpt>
      <trkpt lat="42.57236" lon="2.05001">
        <ele>2131</ele>
        <time>2021-08-05T16:11:32Z</time>
      </trkpt>
      <trkpt lat="42.57282" lon="2.05132">
        <ele>2110</ele>
        <time>2021-08-05T16:13:55Z</time>
      </trkpt>
      <trkpt lat="42.57305" lon="2.05079">
        <ele>2113</ele>
        <time>2021-08-05T16:14:55Z</time>
      </trkpt>
      <trkpt lat="42.574" lon="2.05069">
        <ele>2114</ele>
        <time>2021-08-05T16:17:02Z</time>
      </trkpt>
      <trkpt lat="42.57429" lon="2.05146">
        <ele>2104</ele>
        <time>2021-08-05T16:18:27Z</time>
      </trkpt>
      <trkpt lat="42.57456" lon="2.05223">
        <ele>2096</ele>
        <time>2021-08-05T16:19:51Z</time>
      </trkpt>
      <trkpt lat="42.57525" lon="2.05262">
        <ele>2089</ele>
        <time>2021-08-05T16:21:31Z</time>
      </trkpt>
      <trkpt lat="42.57628" lon="2.05312">
        <ele>2066</ele>
        <time>2021-08-05T16:23:57Z</time>
      </trkpt>
      <trkpt lat="42.57718" lon="2.05319">
        <ele>2048</ele>
        <time>2021-08-05T16:25:57Z</time>
      </trkpt>
      <trkpt lat="42.57787" lon="2.0533">
        <ele>2035</ele>
        <time>2021-08-05T16:27:30Z</time>
      </trkpt>
      <trkpt lat="42.57862" lon="2.054">
        <ele>2016</ele>
        <time>2021-08-05T16:29:31Z</time>
      </trkpt>
      <trkpt lat="42.57897" lon="2.05473">
        <ele>2000</ele>
        <time>2021-08-05T16:30:57Z</time>
      </trkpt>
      <trkpt lat="42.57901" lon="2.0554">
        <ele>1985</ele>
        <time>2021-08-05T16:32:03Z</time>
      </trkpt>
      <trkpt lat="42.57925" lon="2.05609">
        <ele>1970</ele>
        <time>2021-08-05T16:33:18Z</time>
      </trkpt>
      <trkpt lat="42.57962" lon="2.05668">
        <ele>1959</ele>
        <time>2021-08-05T16:34:34Z</time>
      </trkpt>
      <trkpt lat="42.5802" lon="2.05735">
        <ele>1949</ele>
        <time>2021-08-05T16:36:15Z</time>
      </trkpt>
      <trkpt lat="42.58023" lon="2.05771">
        <ele>1942</ele>
        <time>2021-08-05T16:36:51Z</time>
      </trkpt>
      <trkpt lat="42.58052" lon="2.05799">
        <ele>1940</ele>
        <time>2021-08-05T16:37:39Z</time>
      </trkpt>
      <trkpt lat="42.58036" lon="2.05853">
        <ele>1928</ele>
        <time>2021-08-05T16:38:36Z</time>
      </trkpt>
      <trkpt lat="42.58057" lon="2.05913">
        <ele>1921</ele>
        <time>2021-08-05T16:39:41Z</time>
      </trkpt>
      <trkpt lat="42.58048" lon="2.06025">
        <ele>1903</ele>
        <time>2021-08-05T16:41:32Z</time>
      </trkpt>
      <trkpt lat="42.58061" lon="2.06113">
        <ele>1894</ele>
        <time>2021-08-05T16:43:00Z</time>
      </trkpt>
      <trkpt lat="42.5808" lon="2.06177">
        <ele>1890</ele>
        <time>2021-08-05T16:44:08Z</time>
      </trkpt>
      <trkpt lat="42.58108" lon="2.06269">
        <ele>1882</ele>
        <time>2021-08-05T16:45:46Z</time>
      </trkpt>
      <trkpt lat="42.58124" lon="2.06304">
        <ele>1883</ele>
        <time>2021-08-05T16:46:26Z</time>
      </trkpt>
      <trkpt lat="42.58113" lon="2.06327">
        <ele>1881</ele>
        <time>2021-08-05T16:46:53Z</time>
      </trkpt>
      <trkpt lat="42.58146" lon="2.06359">
        <ele>1887</ele>
        <time>2021-08-05T16:47:47Z</time>
      </trkpt>
      <trkpt lat="42.58168" lon="2.0634">
        <ele>1890</ele>
        <time>2021-08-05T16:48:22Z</time>
      </trkpt>
      <trkpt lat="42.58188" lon="2.06382">
        <ele>1884</ele>
        <time>2021-08-05T16:49:11Z</time>
      </trkpt>
      <trkpt lat="42.58208" lon="2.06433">
        <ele>1878</ele>
        <time>2021-08-05T16:50:08Z</time>
      </trkpt>
      <trkpt lat="42.5822" lon="2.06474">
        <ele>1874</ele>
        <time>2021-08-05T16:50:51Z</time>
      </trkpt>
      <trkpt lat="42.58237" lon="2.06539">
        <ele>1865</ele>
        <time>2021-08-05T16:51:59Z</time>
      </trkpt>
      <trkpt lat="42.58238" lon="2.06611">
        <ele>1854</ele>
        <time>2021-08-05T16:53:10Z</time>
      </trkpt>
      <trkpt lat="42.5823" lon="2.06647">
        <ele>1849</ele>
        <time>2021-08-05T16:53:47Z</time>
      </trkpt>
      <trkpt lat="42.58233" lon="2.06676">
        <ele>1844</ele>
        <time>2021-08-05T16:54:15Z</time>
      </trkpt>
      <trkpt lat="42.5825" lon="2.0673">
        <ele>1834</ele>
        <time>2021-08-05T16:55:13Z</time>
      </trkpt>
      <trkpt lat="42.5826" lon="2.06786">
        <ele>1827</ele>
        <time>2021-08-05T16:56:10Z</time>
      </trkpt>
      <trkpt lat="42.58264" lon="2.06829">
        <ele>1821</ele>
        <time>2021-08-05T16:56:52Z</time>
      </trkpt>
      <trkpt lat="42.58245" lon="2.06856">
        <ele>1812</ele>
        <time>2021-08-05T16:57:29Z</time>
      </trkpt>
      <trkpt lat="42.58222" lon="2.0687">
        <ele>1807</ele>
        <time>2021-08-05T16:58:03Z</time>
      </trkpt>
      <trkpt lat="42.58194" lon="2.06885">
        <ele>1800</ele>
        <time>2021-08-05T16:58:43Z</time>
      </trkpt>
      <trkpt lat="42.58164" lon="2.06897">
        <ele>1794</ele>
        <time>2021-08-05T16:59:25Z</time>
      </trkpt>
      <trkpt lat="42.58147" lon="2.06955">
        <ele>1780</ele>
        <time>2021-08-05T17:00:26Z</time>
      </trkpt>
      <trkpt lat="42.58137" lon="2.06957">
        <ele>1781</ele>
        <time>2021-08-05T17:00:39Z</time>
      </trkpt>
      <trkpt lat="42.58107" lon="2.06971">
        <ele>1780</ele>
        <time>2021-08-05T17:01:22Z</time>
      </trkpt>
      <trkpt lat="42.58066" lon="2.07008">
        <ele>1767</ele>
        <time>2021-08-05T17:02:27Z</time>
      </trkpt>
      <trkpt lat="42.58036" lon="2.07022">
        <ele>1758</ele>
        <time>2021-08-05T17:03:10Z</time>
      </trkpt>
      <trkpt lat="42.58007" lon="2.07017">
        <ele>1756</ele>
        <time>2021-08-05T17:03:49Z</time>
      </trkpt>
      <trkpt lat="42.57994" lon="2.06991">
        <ele>1760</ele>
        <time>2021-08-05T17:04:20Z</time>
      </trkpt>
      <trkpt lat="42.57986" lon="2.06975">
        <ele>1762</ele>
        <time>2021-08-05T17:04:39Z</time>
      </trkpt>
      <trkpt lat="42.57969" lon="2.0695">
        <ele>1762</ele>
        <time>2021-08-05T17:05:12Z</time>
      </trkpt>
      <trkpt lat="42.57949" lon="2.06914">
        <ele>1765</ele>
        <time>2021-08-05T17:05:56Z</time>
      </trkpt>
      <trkpt lat="42.5792" lon="2.06869">
        <ele>1765</ele>
        <time>2021-08-05T17:06:55Z</time>
      </trkpt>
      <trkpt lat="42.57895" lon="2.06849">
        <ele>1759</ele>
        <time>2021-08-05T17:07:34Z</time>
      </trkpt>
      <trkpt lat="42.57848" lon="2.06807">
        <ele>1748</ele>
        <time>2021-08-05T17:08:49Z</time>
      </trkpt>
      <trkpt lat="42.57835" lon="2.06737">
        <ele>1754</ele>
        <time>2021-08-05T17:10:00Z</time>
      </trkpt>
      <trkpt lat="42.57823" lon="2.06661">
        <ele>1758</ele>
        <time>2021-08-05T17:11:16Z</time>
      </trkpt>
      <trkpt lat="42.57811" lon="2.06605">
        <ele>1760</ele>
        <time>2021-08-05T17:12:14Z</time>
      </trkpt>
      <trkpt lat="42.57796" lon="2.0652">
        <ele>1765</ele>
        <time>2021-08-05T17:13:39Z</time>
      </trkpt>
      <trkpt lat="42.57791" lon="2.06504">
        <ele>1765</ele>
        <time>2021-08-05T17:13:57Z</time>
      </trkpt>
      <trkpt lat="42.57765" lon="2.06511">
        <ele>1757</ele>
        <time>2021-08-05T17:14:32Z</time>
      </trkpt>
      <trkpt lat="42.57761" lon="2.06591">
        <ele>1745</ele>
        <time>2021-08-05T17:15:51Z</time>
      </trkpt>
      <trkpt lat="42.57757" lon="2.06625">
        <ele>1738</ele>
        <time>2021-08-05T17:16:25Z</time>
      </trkpt>
      <trkpt lat="42.57754" lon="2.06677">
        <ele>1729</ele>
        <time>2021-08-05T17:17:16Z</time>
      </trkpt>
      <trkpt lat="42.57762" lon="2.06746">
        <ele>1723</ele>
        <time>2021-08-05T17:18:24Z</time>
      </trkpt>
      <trkpt lat="42.57766" lon="2.06791">
        <ele>1718</ele>
        <time>2021-08-05T17:19:09Z</time>
      </trkpt>
      <trkpt lat="42.57774" lon="2.06833">
        <ele>1715</ele>
        <time>2021-08-05T17:19:52Z</time>
      </trkpt>
      <trkpt lat="42.57785" lon="2.06871">
        <ele>1713</ele>
        <time>2021-08-05T17:20:32Z</time>
      </trkpt>
      <trkpt lat="42.57743" lon="2.06925">
        <ele>1690</ele>
        <time>2021-08-05T17:21:49Z</time>
      </trkpt>
      <trkpt lat="42.57731" lon="2.06896">
        <ele>1692</ele>
        <time>2021-08-05T17:22:22Z</time>
      </trkpt>
      <trkpt lat="42.57713" lon="2.06861">
        <ele>1692</ele>
        <time>2021-08-05T17:23:04Z</time>
      </trkpt>
      <trkpt lat="42.57697" lon="2.06809">
        <ele>1695</ele>
        <time>2021-08-05T17:23:59Z</time>
      </trkpt>
      <trkpt lat="42.57694" lon="2.068">
        <ele>1696</ele>
        <time>2021-08-05T17:24:09Z</time>
      </trkpt>
      <trkpt lat="42.57675" lon="2.06803">
        <ele>1691</ele>
        <time>2021-08-05T17:24:34Z</time>
      </trkpt>
      <trkpt lat="42.57683" lon="2.06868">
        <ele>1683</ele>
        <time>2021-08-05T17:25:39Z</time>
      </trkpt>
      <trkpt lat="42.57691" lon="2.06935">
        <ele>1675</ele>
        <time>2021-08-05T17:26:46Z</time>
      </trkpt>
      <trkpt lat="42.57703" lon="2.06997">
        <ele>1668</ele>
        <time>2021-08-05T17:27:49Z</time>
      </trkpt>
      <trkpt lat="42.57718" lon="2.07081">
        <ele>1662</ele>
        <time>2021-08-05T17:29:14Z</time>
      </trkpt>
    </trkseg>
  </trk>
</gpx>